sensor_id;sensor_type;location;lat;lon;timestamp;P1;durP1;ratioP1;P2;durP2;ratioP2
76320;SDS011;65132;52.088;5.402;2023-05-10T00:01:51;41.10;;;15.73;;
76320;SDS011;65132;52.088;5.402;2023-05-10T00:04:17;39.67;;;14.38;;
76320;SDS011;65132;52.088;5.402;2023-05-10T00:06:43;42.33;;;16.25;;
76320;SDS011;65132;52.088;5.402;2023-05-10T00:09:12;43.92;;;14.63;;
76320;SDS011;65132;52.088;5.402;2023-05-10T00:11:38;40.20;;;14.52;;
76320;SDS011;65132;52.088;5.402;2023-05-10T00:14:04;41.22;;;14.77;;
76320;SDS011;65132;52.088;5.402;2023-05-10T00:16:36;41.63;;;15.10;;
76320;SDS011;65132;52.088;5.402;2023-05-10T00:19:05;41.42;;;14.40;;
76320;SDS011;65132;52.088;5.402;2023-05-10T00:21:32;41.55;;;14.57;;
76320;SDS011;65132;52.088;5.402;2023-05-10T00:24:01;41.30;;;14.68;;
76320;SDS011;65132;52.088;5.402;2023-05-10T00:26:27;48.75;;;16.90;;
76320;SDS011;65132;52.088;5.402;2023-05-10T00:28:57;47.00;;;16.55;;
76320;SDS011;65132;52.088;5.402;2023-05-10T00:31:25;49.25;;;16.15;;
76320;SDS011;65132;52.088;5.402;2023-05-10T00:33:51;47.83;;;15.13;;
76320;SDS011;65132;52.088;5.402;2023-05-10T00:36:17;45.22;;;16.90;;
76320;SDS011;65132;52.088;5.402;2023-05-10T00:38:46;52.63;;;17.45;;
76320;SDS011;65132;52.088;5.402;2023-05-10T00:41:13;55.78;;;16.65;;
76320;SDS011;65132;52.088;5.402;2023-05-10T00:43:41;57.08;;;17.58;;
76320;SDS011;65132;52.088;5.402;2023-05-10T00:46:07;52.20;;;18.98;;
76320;SDS011;65132;52.088;5.402;2023-05-10T00:48:34;57.00;;;19.50;;
76320;SDS011;65132;52.088;5.402;2023-05-10T00:51:02;53.53;;;19.63;;
76320;SDS011;65132;52.088;5.402;2023-05-10T00:53:30;58.38;;;19.98;;
76320;SDS011;65132;52.088;5.402;2023-05-10T00:55:57;58.53;;;18.58;;
76320;SDS011;65132;52.088;5.402;2023-05-10T00:58:26;55.83;;;18.60;;
76320;SDS011;65132;52.088;5.402;2023-05-10T01:00:52;61.13;;;18.88;;
76320;SDS011;65132;52.088;5.402;2023-05-10T01:03:21;58.60;;;18.48;;
76320;SDS011;65132;52.088;5.402;2023-05-10T01:05:47;54.15;;;18.23;;
76320;SDS011;65132;52.088;5.402;2023-05-10T01:08:15;55.38;;;17.80;;
76320;SDS011;65132;52.088;5.402;2023-05-10T01:10:41;57.22;;;19.42;;
76320;SDS011;65132;52.088;5.402;2023-05-10T01:13:08;50.50;;;16.58;;
76320;SDS011;65132;52.088;5.402;2023-05-10T01:15:39;49.83;;;16.98;;
76320;SDS011;65132;52.088;5.402;2023-05-10T01:18:08;52.20;;;16.90;;
76320;SDS011;65132;52.088;5.402;2023-05-10T01:20:40;47.97;;;15.15;;
76320;SDS011;65132;52.088;5.402;2023-05-10T01:23:30;52.22;;;18.45;;
76320;SDS011;65132;52.088;5.402;2023-05-10T01:26:15;49.83;;;15.75;;
76320;SDS011;65132;52.088;5.402;2023-05-10T01:34:16;50.20;;;16.15;;
76320;SDS011;65132;52.088;5.402;2023-05-10T01:36:58;45.90;;;16.15;;
76320;SDS011;65132;52.088;5.402;2023-05-10T01:39:36;56.13;;;17.52;;
76320;SDS011;65132;52.088;5.402;2023-05-10T01:47:07;56.50;;;17.02;;
76320;SDS011;65132;52.088;5.402;2023-05-10T01:49:37;49.63;;;16.88;;
76320;SDS011;65132;52.088;5.402;2023-05-10T01:52:08;55.97;;;17.33;;
76320;SDS011;65132;52.088;5.402;2023-05-10T01:54:38;47.92;;;15.48;;
76320;SDS011;65132;52.088;5.402;2023-05-10T01:57:07;49.28;;;16.40;;
76320;SDS011;65132;52.088;5.402;2023-05-10T01:59:35;50.28;;;16.35;;
76320;SDS011;65132;52.088;5.402;2023-05-10T02:02:02;53.53;;;18.70;;
76320;SDS011;65132;52.088;5.402;2023-05-10T02:04:33;55.53;;;19.08;;
76320;SDS011;65132;52.088;5.402;2023-05-10T02:07:01;56.85;;;19.38;;
76320;SDS011;65132;52.088;5.402;2023-05-10T02:09:28;54.17;;;15.88;;
76320;SDS011;65132;52.088;5.402;2023-05-10T02:11:57;57.65;;;18.15;;
76320;SDS011;65132;52.088;5.402;2023-05-10T02:14:24;59.60;;;17.17;;
76320;SDS011;65132;52.088;5.402;2023-05-10T02:16:51;57.70;;;18.25;;
76320;SDS011;65132;52.088;5.402;2023-05-10T02:19:21;52.33;;;17.40;;
76320;SDS011;65132;52.088;5.402;2023-05-10T02:21:50;51.33;;;16.92;;
76320;SDS011;65132;52.088;5.402;2023-05-10T02:24:21;48.80;;;14.68;;
76320;SDS011;65132;52.088;5.402;2023-05-10T02:29:18;51.60;;;17.10;;
76320;SDS011;65132;52.088;5.402;2023-05-10T02:31:47;53.00;;;19.20;;
76320;SDS011;65132;52.088;5.402;2023-05-10T02:34:16;52.83;;;17.63;;
76320;SDS011;65132;52.088;5.402;2023-05-10T02:36:46;54.63;;;18.58;;
76320;SDS011;65132;52.088;5.402;2023-05-10T02:39:15;54.08;;;16.15;;
76320;SDS011;65132;52.088;5.402;2023-05-10T02:41:44;57.67;;;18.30;;
76320;SDS011;65132;52.088;5.402;2023-05-10T02:44:17;57.20;;;19.23;;
76320;SDS011;65132;52.088;5.402;2023-05-10T02:46:44;51.55;;;16.85;;
76320;SDS011;65132;52.088;5.402;2023-05-10T02:49:11;54.60;;;15.48;;
76320;SDS011;65132;52.088;5.402;2023-05-10T02:51:40;56.38;;;17.48;;
76320;SDS011;65132;52.088;5.402;2023-05-10T02:54:10;58.40;;;17.02;;
76320;SDS011;65132;52.088;5.402;2023-05-10T02:56:43;50.92;;;16.25;;
76320;SDS011;65132;52.088;5.402;2023-05-10T02:59:13;64.47;;;19.23;;
76320;SDS011;65132;52.088;5.402;2023-05-10T03:01:39;67.90;;;19.10;;
76320;SDS011;65132;52.088;5.402;2023-05-10T03:04:05;72.78;;;22.55;;
76320;SDS011;65132;52.088;5.402;2023-05-10T03:06:36;75.07;;;20.73;;
76320;SDS011;65132;52.088;5.402;2023-05-10T03:09:05;77.82;;;20.42;;
76320;SDS011;65132;52.088;5.402;2023-05-10T03:11:35;76.45;;;21.08;;
76320;SDS011;65132;52.088;5.402;2023-05-10T03:14:22;72.18;;;21.13;;
76320;SDS011;65132;52.088;5.402;2023-05-10T03:17:28;77.05;;;20.33;;
76320;SDS011;65132;52.088;5.402;2023-05-10T03:19:48;66.10;;;17.60;;
76320;SDS011;65132;52.088;5.402;2023-05-10T03:22:16;75.72;;;20.08;;
76320;SDS011;65132;52.088;5.402;2023-05-10T03:24:46;73.50;;;19.50;;
76320;SDS011;65132;52.088;5.402;2023-05-10T03:27:15;75.18;;;19.55;;
76320;SDS011;65132;52.088;5.402;2023-05-10T03:29:43;72.22;;;19.48;;
76320;SDS011;65132;52.088;5.402;2023-05-10T03:32:14;76.47;;;20.23;;
76320;SDS011;65132;52.088;5.402;2023-05-10T03:34:42;65.90;;;18.92;;
76320;SDS011;65132;52.088;5.402;2023-05-10T03:37:09;61.85;;;20.05;;
76320;SDS011;65132;52.088;5.402;2023-05-10T03:39:39;65.88;;;19.95;;
76320;SDS011;65132;52.088;5.402;2023-05-10T03:42:05;67.25;;;19.10;;
76320;SDS011;65132;52.088;5.402;2023-05-10T03:44:33;69.88;;;20.00;;
76320;SDS011;65132;52.088;5.402;2023-05-10T03:47:01;68.68;;;18.35;;
76320;SDS011;65132;52.088;5.402;2023-05-10T03:49:30;62.40;;;19.63;;
76320;SDS011;65132;52.088;5.402;2023-05-10T03:54:25;61.88;;;17.45;;
76320;SDS011;65132;52.088;5.402;2023-05-10T03:56:51;63.50;;;17.25;;
76320;SDS011;65132;52.088;5.402;2023-05-10T03:59:19;56.83;;;17.95;;
76320;SDS011;65132;52.088;5.402;2023-05-10T04:01:46;52.05;;;15.63;;
76320;SDS011;65132;52.088;5.402;2023-05-10T04:04:12;55.03;;;16.55;;
76320;SDS011;65132;52.088;5.402;2023-05-10T04:06:41;52.35;;;16.65;;
76320;SDS011;65132;52.088;5.402;2023-05-10T04:09:09;59.13;;;17.40;;
76320;SDS011;65132;52.088;5.402;2023-05-10T04:11:36;65.63;;;17.67;;
76320;SDS011;65132;52.088;5.402;2023-05-10T04:14:02;62.65;;;17.92;;
76320;SDS011;65132;52.088;5.402;2023-05-10T04:16:29;58.60;;;16.58;;
76320;SDS011;65132;52.088;5.402;2023-05-10T04:18:56;60.10;;;15.98;;
76320;SDS011;65132;52.088;5.402;2023-05-10T04:21:22;59.13;;;18.45;;
76320;SDS011;65132;52.088;5.402;2023-05-10T04:23:48;59.95;;;17.27;;
76320;SDS011;65132;52.088;5.402;2023-05-10T04:26:15;63.33;;;18.33;;
76320;SDS011;65132;52.088;5.402;2023-05-10T04:28:45;57.88;;;16.85;;
76320;SDS011;65132;52.088;5.402;2023-05-10T04:33:44;60.17;;;16.95;;
76320;SDS011;65132;52.088;5.402;2023-05-10T04:36:12;59.00;;;16.48;;
76320;SDS011;65132;52.088;5.402;2023-05-10T04:38:39;60.38;;;16.92;;
76320;SDS011;65132;52.088;5.402;2023-05-10T04:41:09;62.20;;;18.42;;
76320;SDS011;65132;52.088;5.402;2023-05-10T04:43:35;63.10;;;19.08;;
76320;SDS011;65132;52.088;5.402;2023-05-10T04:46:02;60.30;;;16.85;;
76320;SDS011;65132;52.088;5.402;2023-05-10T04:48:29;58.40;;;17.05;;
76320;SDS011;65132;52.088;5.402;2023-05-10T04:50:57;65.93;;;18.17;;
76320;SDS011;65132;52.088;5.402;2023-05-10T04:53:26;63.08;;;17.48;;
76320;SDS011;65132;52.088;5.402;2023-05-10T04:55:54;56.63;;;17.67;;
76320;SDS011;65132;52.088;5.402;2023-05-10T04:58:20;64.88;;;18.30;;
76320;SDS011;65132;52.088;5.402;2023-05-10T05:03:36;62.40;;;17.95;;
76320;SDS011;65132;52.088;5.402;2023-05-10T05:06:05;75.68;;;21.70;;
76320;SDS011;65132;52.088;5.402;2023-05-10T05:08:31;65.45;;;18.55;;
76320;SDS011;65132;52.088;5.402;2023-05-10T05:10:58;68.13;;;19.58;;
76320;SDS011;65132;52.088;5.402;2023-05-10T05:13:25;62.20;;;18.38;;
76320;SDS011;65132;52.088;5.402;2023-05-10T05:15:56;63.00;;;18.25;;
76320;SDS011;65132;52.088;5.402;2023-05-10T05:18:30;60.10;;;17.20;;
76320;SDS011;65132;52.088;5.402;2023-05-10T05:20:57;64.05;;;19.08;;
76320;SDS011;65132;52.088;5.402;2023-05-10T05:23:23;60.45;;;17.48;;
76320;SDS011;65132;52.088;5.402;2023-05-10T05:25:55;66.38;;;20.33;;
76320;SDS011;65132;52.088;5.402;2023-05-10T05:28:21;67.68;;;19.10;;
76320;SDS011;65132;52.088;5.402;2023-05-10T05:30:51;61.78;;;19.65;;
76320;SDS011;65132;52.088;5.402;2023-05-10T05:33:21;59.75;;;19.10;;
76320;SDS011;65132;52.088;5.402;2023-05-10T05:35:50;68.20;;;19.40;;
76320;SDS011;65132;52.088;5.402;2023-05-10T05:38:16;64.35;;;19.95;;
76320;SDS011;65132;52.088;5.402;2023-05-10T05:40:43;68.95;;;18.98;;
76320;SDS011;65132;52.088;5.402;2023-05-10T05:43:09;69.32;;;19.77;;
76320;SDS011;65132;52.088;5.402;2023-05-10T05:45:35;72.63;;;18.75;;
76320;SDS011;65132;52.088;5.402;2023-05-10T05:48:12;72.25;;;19.23;;
76320;SDS011;65132;52.088;5.402;2023-05-10T05:50:41;65.00;;;20.27;;
76320;SDS011;65132;52.088;5.402;2023-05-10T05:53:08;56.65;;;17.08;;
76320;SDS011;65132;52.088;5.402;2023-05-10T05:55:34;61.30;;;19.45;;
76320;SDS011;65132;52.088;5.402;2023-05-10T05:58:01;57.10;;;19.60;;
76320;SDS011;65132;52.088;5.402;2023-05-10T06:00:27;56.53;;;19.08;;
76320;SDS011;65132;52.088;5.402;2023-05-10T06:02:53;70.75;;;21.30;;
76320;SDS011;65132;52.088;5.402;2023-05-10T06:05:20;54.75;;;19.52;;
76320;SDS011;65132;52.088;5.402;2023-05-10T06:07:46;63.30;;;19.48;;
76320;SDS011;65132;52.088;5.402;2023-05-10T06:10:13;61.38;;;18.75;;
76320;SDS011;65132;52.088;5.402;2023-05-10T06:12:39;60.83;;;17.60;;
76320;SDS011;65132;52.088;5.402;2023-05-10T06:15:09;49.53;;;17.02;;
76320;SDS011;65132;52.088;5.402;2023-05-10T06:17:37;51.75;;;17.88;;
76320;SDS011;65132;52.088;5.402;2023-05-10T06:20:06;45.63;;;15.75;;
76320;SDS011;65132;52.088;5.402;2023-05-10T06:22:35;55.17;;;17.42;;
76320;SDS011;65132;52.088;5.402;2023-05-10T06:25:01;46.17;;;16.65;;
76320;SDS011;65132;52.088;5.402;2023-05-10T06:27:29;44.63;;;14.98;;
76320;SDS011;65132;52.088;5.402;2023-05-10T06:29:58;52.80;;;18.38;;
76320;SDS011;65132;52.088;5.402;2023-05-10T06:35:04;51.65;;;15.63;;
76320;SDS011;65132;52.088;5.402;2023-05-10T06:37:30;49.45;;;16.98;;
76320;SDS011;65132;52.088;5.402;2023-05-10T06:39:56;43.13;;;15.55;;
76320;SDS011;65132;52.088;5.402;2023-05-10T06:42:23;50.40;;;16.13;;
76320;SDS011;65132;52.088;5.402;2023-05-10T06:44:52;48.45;;;15.10;;
76320;SDS011;65132;52.088;5.402;2023-05-10T06:47:19;47.92;;;15.02;;
76320;SDS011;65132;52.088;5.402;2023-05-10T06:49:47;43.58;;;15.43;;
76320;SDS011;65132;52.088;5.402;2023-05-10T06:52:14;41.83;;;13.85;;
76320;SDS011;65132;52.088;5.402;2023-05-10T06:54:41;37.85;;;12.73;;
76320;SDS011;65132;52.088;5.402;2023-05-10T06:57:07;31.30;;;11.55;;
76320;SDS011;65132;52.088;5.402;2023-05-10T06:59:49;32.03;;;11.48;;
76320;SDS011;65132;52.088;5.402;2023-05-10T07:02:15;31.10;;;10.75;;
76320;SDS011;65132;52.088;5.402;2023-05-10T07:04:41;26.65;;;10.38;;
76320;SDS011;65132;52.088;5.402;2023-05-10T07:07:08;23.02;;;8.85;;
76320;SDS011;65132;52.088;5.402;2023-05-10T07:09:34;20.90;;;8.57;;
76320;SDS011;65132;52.088;5.402;2023-05-10T07:12:01;19.33;;;7.35;;
76320;SDS011;65132;52.088;5.402;2023-05-10T07:14:27;20.55;;;7.50;;
76320;SDS011;65132;52.088;5.402;2023-05-10T07:16:54;17.85;;;6.97;;
76320;SDS011;65132;52.088;5.402;2023-05-10T07:19:23;16.45;;;7.35;;
76320;SDS011;65132;52.088;5.402;2023-05-10T07:21:50;16.15;;;6.13;;
76320;SDS011;65132;52.088;5.402;2023-05-10T07:24:16;15.20;;;5.80;;
76320;SDS011;65132;52.088;5.402;2023-05-10T07:26:42;14.07;;;5.47;;
76320;SDS011;65132;52.088;5.402;2023-05-10T07:29:12;19.55;;;6.00;;
76320;SDS011;65132;52.088;5.402;2023-05-10T07:31:39;14.75;;;6.65;;
76320;SDS011;65132;52.088;5.402;2023-05-10T07:34:07;13.73;;;5.72;;
76320;SDS011;65132;52.088;5.402;2023-05-10T07:36:38;13.00;;;5.20;;
76320;SDS011;65132;52.088;5.402;2023-05-10T07:39:05;12.93;;;5.35;;
76320;SDS011;65132;52.088;5.402;2023-05-10T07:41:35;13.63;;;5.55;;
76320;SDS011;65132;52.088;5.402;2023-05-10T07:44:04;14.43;;;5.30;;
76320;SDS011;65132;52.088;5.402;2023-05-10T07:46:30;17.17;;;6.20;;
76320;SDS011;65132;52.088;5.402;2023-05-10T07:48:59;14.82;;;5.82;;
76320;SDS011;65132;52.088;5.402;2023-05-10T07:51:25;17.48;;;5.95;;
76320;SDS011;65132;52.088;5.402;2023-05-10T07:53:51;13.95;;;5.75;;
76320;SDS011;65132;52.088;5.402;2023-05-10T07:58:50;14.02;;;5.32;;
76320;SDS011;65132;52.088;5.402;2023-05-10T08:01:17;12.65;;;5.57;;
76320;SDS011;65132;52.088;5.402;2023-05-10T08:03:43;15.02;;;6.18;;
76320;SDS011;65132;52.088;5.402;2023-05-10T08:06:10;11.73;;;4.85;;
76320;SDS011;65132;52.088;5.402;2023-05-10T08:08:38;15.95;;;6.78;;
76320;SDS011;65132;52.088;5.402;2023-05-10T08:11:05;12.63;;;5.15;;
76320;SDS011;65132;52.088;5.402;2023-05-10T08:13:31;12.75;;;6.25;;
76320;SDS011;65132;52.088;5.402;2023-05-10T08:15:57;15.90;;;5.80;;
76320;SDS011;65132;52.088;5.402;2023-05-10T08:18:24;14.60;;;5.75;;
76320;SDS011;65132;52.088;5.402;2023-05-10T08:20:52;13.70;;;6.20;;
76320;SDS011;65132;52.088;5.402;2023-05-10T08:23:21;13.65;;;5.65;;
76320;SDS011;65132;52.088;5.402;2023-05-10T08:25:47;14.68;;;5.63;;
76320;SDS011;65132;52.088;5.402;2023-05-10T08:28:14;11.90;;;4.85;;
76320;SDS011;65132;52.088;5.402;2023-05-10T08:30:42;13.98;;;4.75;;
76320;SDS011;65132;52.088;5.402;2023-05-10T08:33:09;13.05;;;5.65;;
76320;SDS011;65132;52.088;5.402;2023-05-10T08:35:35;12.35;;;4.68;;
76320;SDS011;65132;52.088;5.402;2023-05-10T08:38:01;14.27;;;5.10;;
76320;SDS011;65132;52.088;5.402;2023-05-10T08:40:27;14.57;;;4.93;;
76320;SDS011;65132;52.088;5.402;2023-05-10T08:42:55;14.05;;;5.90;;
76320;SDS011;65132;52.088;5.402;2023-05-10T08:45:24;12.88;;;5.25;;
76320;SDS011;65132;52.088;5.402;2023-05-10T08:47:51;11.02;;;4.95;;
76320;SDS011;65132;52.088;5.402;2023-05-10T08:50:19;11.45;;;5.03;;
76320;SDS011;65132;52.088;5.402;2023-05-10T08:55:15;12.27;;;5.40;;
76320;SDS011;65132;52.088;5.402;2023-05-10T08:57:50;12.23;;;5.10;;
76320;SDS011;65132;52.088;5.402;2023-05-10T09:00:17;15.52;;;5.32;;
76320;SDS011;65132;52.088;5.402;2023-05-10T09:02:44;13.52;;;5.00;;
76320;SDS011;65132;52.088;5.402;2023-05-10T09:05:11;13.00;;;5.90;;
76320;SDS011;65132;52.088;5.402;2023-05-10T09:07:41;14.35;;;5.60;;
76320;SDS011;65132;52.088;5.402;2023-05-10T09:10:09;15.07;;;6.60;;
76320;SDS011;65132;52.088;5.402;2023-05-10T09:12:36;12.02;;;6.43;;
76320;SDS011;65132;52.088;5.402;2023-05-10T09:15:03;12.13;;;5.30;;
76320;SDS011;65132;52.088;5.402;2023-05-10T09:17:29;11.90;;;5.10;;
76320;SDS011;65132;52.088;5.402;2023-05-10T09:19:59;12.32;;;4.68;;
76320;SDS011;65132;52.088;5.402;2023-05-10T09:22:27;12.75;;;5.20;;
76320;SDS011;65132;52.088;5.402;2023-05-10T09:25:09;10.60;;;4.57;;
76320;SDS011;65132;52.088;5.402;2023-05-10T09:27:37;12.45;;;4.32;;
76320;SDS011;65132;52.088;5.402;2023-05-10T09:30:04;8.98;;;3.58;;
76320;SDS011;65132;52.088;5.402;2023-05-10T09:32:41;10.25;;;3.40;;
76320;SDS011;65132;52.088;5.402;2023-05-10T09:35:12;7.55;;;3.30;;
76320;SDS011;65132;52.088;5.402;2023-05-10T09:37:40;5.80;;;2.22;;
76320;SDS011;65132;52.088;5.402;2023-05-10T09:40:07;6.32;;;3.08;;
76320;SDS011;65132;52.088;5.402;2023-05-10T09:42:34;9.32;;;3.55;;
76320;SDS011;65132;52.088;5.402;2023-05-10T09:45:02;8.85;;;3.22;;
76320;SDS011;65132;52.088;5.402;2023-05-10T09:47:28;8.57;;;3.67;;
76320;SDS011;65132;52.088;5.402;2023-05-10T09:49:55;8.38;;;3.45;;
76320;SDS011;65132;52.088;5.402;2023-05-10T09:52:21;8.38;;;3.17;;
76320;SDS011;65132;52.088;5.402;2023-05-10T09:54:54;7.53;;;3.42;;
76320;SDS011;65132;52.088;5.402;2023-05-10T10:00:03;8.95;;;3.55;;
76320;SDS011;65132;52.088;5.402;2023-05-10T10:02:29;5.82;;;2.97;;
76320;SDS011;65132;52.088;5.402;2023-05-10T10:07:43;6.30;;;2.53;;
76320;SDS011;65132;52.088;5.402;2023-05-10T10:10:11;5.63;;;2.40;;
76320;SDS011;65132;52.088;5.402;2023-05-10T10:12:39;7.40;;;3.20;;
76320;SDS011;65132;52.088;5.402;2023-05-10T10:15:09;7.15;;;2.80;;
76320;SDS011;65132;52.088;5.402;2023-05-10T10:17:36;9.20;;;2.97;;
76320;SDS011;65132;52.088;5.402;2023-05-10T10:20:03;8.80;;;3.45;;
76320;SDS011;65132;52.088;5.402;2023-05-10T10:22:29;7.28;;;3.25;;
76320;SDS011;65132;52.088;5.402;2023-05-10T10:24:55;7.82;;;3.25;;
76320;SDS011;65132;52.088;5.402;2023-05-10T10:27:27;9.15;;;3.45;;
76320;SDS011;65132;52.088;5.402;2023-05-10T10:30:13;7.85;;;3.63;;
76320;SDS011;65132;52.088;5.402;2023-05-10T10:35:38;7.90;;;3.70;;
76320;SDS011;65132;52.088;5.402;2023-05-10T11:07:52;7.60;;;2.88;;
76320;SDS011;65132;52.088;5.402;2023-05-10T11:10:20;10.15;;;3.90;;
76320;SDS011;65132;52.088;5.402;2023-05-10T11:28:59;5.97;;;2.75;;
76320;SDS011;65132;52.088;5.402;2023-05-10T11:31:26;7.85;;;2.85;;
76320;SDS011;65132;52.088;5.402;2023-05-10T11:33:56;7.95;;;3.28;;
76320;SDS011;65132;52.088;5.402;2023-05-10T11:38:49;7.25;;;2.97;;
76320;SDS011;65132;52.088;5.402;2023-05-10T11:41:18;7.35;;;2.72;;
76320;SDS011;65132;52.088;5.402;2023-05-10T11:43:57;5.68;;;2.30;;
76320;SDS011;65132;52.088;5.402;2023-05-10T11:46:24;4.93;;;2.35;;
76320;SDS011;65132;52.088;5.402;2023-05-10T11:48:51;5.25;;;2.92;;
76320;SDS011;65132;52.088;5.402;2023-05-10T11:51:22;9.00;;;2.40;;
76320;SDS011;65132;52.088;5.402;2023-05-10T11:54:00;5.90;;;2.13;;
76320;SDS011;65132;52.088;5.402;2023-05-10T11:56:27;6.47;;;2.13;;
76320;SDS011;65132;52.088;5.402;2023-05-10T11:58:56;7.18;;;2.25;;
76320;SDS011;65132;52.088;5.402;2023-05-10T12:01:23;3.80;;;1.90;;
76320;SDS011;65132;52.088;5.402;2023-05-10T12:03:50;4.88;;;1.73;;
76320;SDS011;65132;52.088;5.402;2023-05-10T12:06:21;4.95;;;1.70;;
76320;SDS011;65132;52.088;5.402;2023-05-10T12:08:48;5.70;;;2.17;;
76320;SDS011;65132;52.088;5.402;2023-05-10T12:11:16;5.05;;;1.98;;
76320;SDS011;65132;52.088;5.402;2023-05-10T12:13:43;5.45;;;1.90;;
76320;SDS011;65132;52.088;5.402;2023-05-10T12:16:24;6.07;;;2.40;;
76320;SDS011;65132;52.088;5.402;2023-05-10T12:18:52;4.40;;;2.05;;
76320;SDS011;65132;52.088;5.402;2023-05-10T12:21:20;5.90;;;2.22;;
76320;SDS011;65132;52.088;5.402;2023-05-10T12:23:50;4.70;;;1.73;;
76320;SDS011;65132;52.088;5.402;2023-05-10T12:26:17;4.22;;;1.80;;
76320;SDS011;65132;52.088;5.402;2023-05-10T12:28:46;6.57;;;1.98;;
76320;SDS011;65132;52.088;5.402;2023-05-10T12:31:16;3.28;;;1.63;;
76320;SDS011;65132;52.088;5.402;2023-05-10T12:33:45;4.05;;;2.38;;
76320;SDS011;65132;52.088;5.402;2023-05-10T12:36:15;5.47;;;2.00;;
76320;SDS011;65132;52.088;5.402;2023-05-10T12:38:45;5.70;;;1.58;;
76320;SDS011;65132;52.088;5.402;2023-05-10T12:41:12;4.75;;;1.20;;
76320;SDS011;65132;52.088;5.402;2023-05-10T12:43:41;4.72;;;1.75;;
76320;SDS011;65132;52.088;5.402;2023-05-10T12:46:08;4.72;;;1.58;;
76320;SDS011;65132;52.088;5.402;2023-05-10T12:48:35;4.65;;;1.73;;
76320;SDS011;65132;52.088;5.402;2023-05-10T12:51:02;5.78;;;1.90;;
76320;SDS011;65132;52.088;5.402;2023-05-10T12:53:29;6.13;;;2.00;;
76320;SDS011;65132;52.088;5.402;2023-05-10T12:55:56;4.18;;;1.88;;
76320;SDS011;65132;52.088;5.402;2023-05-10T12:58:22;4.50;;;1.50;;
76320;SDS011;65132;52.088;5.402;2023-05-10T13:01:01;5.38;;;2.65;;
76320;SDS011;65132;52.088;5.402;2023-05-10T13:03:27;6.93;;;3.50;;
76320;SDS011;65132;52.088;5.402;2023-05-10T13:05:53;6.72;;;3.20;;
76320;SDS011;65132;52.088;5.402;2023-05-10T13:08:23;6.35;;;3.40;;
76320;SDS011;65132;52.088;5.402;2023-05-10T13:10:50;6.30;;;3.38;;
76320;SDS011;65132;52.088;5.402;2023-05-10T13:13:16;9.70;;;3.75;;
76320;SDS011;65132;52.088;5.402;2023-05-10T13:15:45;5.78;;;3.38;;
76320;SDS011;65132;52.088;5.402;2023-05-10T13:18:11;7.25;;;3.92;;
76320;SDS011;65132;52.088;5.402;2023-05-10T13:20:39;6.20;;;3.20;;
76320;SDS011;65132;52.088;5.402;2023-05-10T13:23:08;6.97;;;3.33;;
76320;SDS011;65132;52.088;5.402;2023-05-10T13:25:34;9.07;;;2.55;;
76320;SDS011;65132;52.088;5.402;2023-05-10T13:28:03;6.85;;;2.63;;
76320;SDS011;65132;52.088;5.402;2023-05-10T13:30:31;6.70;;;2.72;;
76320;SDS011;65132;52.088;5.402;2023-05-10T13:32:57;6.97;;;2.70;;
76320;SDS011;65132;52.088;5.402;2023-05-10T13:35:25;7.15;;;3.47;;
76320;SDS011;65132;52.088;5.402;2023-05-10T13:37:52;7.63;;;3.00;;
76320;SDS011;65132;52.088;5.402;2023-05-10T13:40:18;6.22;;;2.55;;
76320;SDS011;65132;52.088;5.402;2023-05-10T13:42:47;7.07;;;2.47;;
76320;SDS011;65132;52.088;5.402;2023-05-10T13:45:13;7.45;;;2.80;;
76320;SDS011;65132;52.088;5.402;2023-05-10T13:47:41;8.38;;;3.53;;
76320;SDS011;65132;52.088;5.402;2023-05-10T13:50:08;8.07;;;3.00;;
76320;SDS011;65132;52.088;5.402;2023-05-10T13:52:34;8.88;;;3.17;;
76320;SDS011;65132;52.088;5.402;2023-05-10T13:55:00;7.38;;;2.90;;
76320;SDS011;65132;52.088;5.402;2023-05-10T13:57:27;8.23;;;3.75;;
76320;SDS011;65132;52.088;5.402;2023-05-10T13:59:53;5.72;;;3.13;;
76320;SDS011;65132;52.088;5.402;2023-05-10T14:02:22;6.78;;;2.53;;
76320;SDS011;65132;52.088;5.402;2023-05-10T14:04:51;6.97;;;2.55;;
76320;SDS011;65132;52.088;5.402;2023-05-10T14:07:17;7.38;;;3.15;;
76320;SDS011;65132;52.088;5.402;2023-05-10T14:09:51;8.50;;;3.05;;
76320;SDS011;65132;52.088;5.402;2023-05-10T14:12:19;10.52;;;3.42;;
76320;SDS011;65132;52.088;5.402;2023-05-10T14:14:46;8.25;;;3.30;;
76320;SDS011;65132;52.088;5.402;2023-05-10T14:17:12;9.35;;;3.92;;
76320;SDS011;65132;52.088;5.402;2023-05-10T14:19:38;11.55;;;4.18;;
76320;SDS011;65132;52.088;5.402;2023-05-10T14:22:04;9.40;;;4.50;;
76320;SDS011;65132;52.088;5.402;2023-05-10T14:24:31;9.95;;;3.97;;
76320;SDS011;65132;52.088;5.402;2023-05-10T14:26:57;10.65;;;3.88;;
76320;SDS011;65132;52.088;5.402;2023-05-10T14:29:23;12.68;;;5.22;;
76320;SDS011;65132;52.088;5.402;2023-05-10T14:31:49;11.35;;;4.38;;
76320;SDS011;65132;52.088;5.402;2023-05-10T14:34:16;10.73;;;4.35;;
76320;SDS011;65132;52.088;5.402;2023-05-10T14:36:42;9.88;;;4.35;;
76320;SDS011;65132;52.088;5.402;2023-05-10T14:39:08;10.65;;;3.58;;
76320;SDS011;65132;52.088;5.402;2023-05-10T14:41:36;11.57;;;4.47;;
76320;SDS011;65132;52.088;5.402;2023-05-10T14:44:02;11.10;;;5.75;;
76320;SDS011;65132;52.088;5.402;2023-05-10T14:46:31;11.65;;;4.50;;
76320;SDS011;65132;52.088;5.402;2023-05-10T14:48:57;10.32;;;4.18;;
76320;SDS011;65132;52.088;5.402;2023-05-10T14:51:24;11.05;;;4.10;;
76320;SDS011;65132;52.088;5.402;2023-05-10T14:53:50;13.35;;;5.32;;
76320;SDS011;65132;52.088;5.402;2023-05-10T14:56:16;11.05;;;4.38;;
76320;SDS011;65132;52.088;5.402;2023-05-10T14:58:42;9.90;;;4.22;;
76320;SDS011;65132;52.088;5.402;2023-05-10T15:01:09;9.93;;;4.25;;
76320;SDS011;65132;52.088;5.402;2023-05-10T15:03:35;9.27;;;3.95;;
76320;SDS011;65132;52.088;5.402;2023-05-10T15:06:03;10.35;;;4.20;;
76320;SDS011;65132;52.088;5.402;2023-05-10T15:08:30;8.48;;;3.95;;
76320;SDS011;65132;52.088;5.402;2023-05-10T15:10:56;11.50;;;4.38;;
76320;SDS011;65132;52.088;5.402;2023-05-10T15:13:22;9.43;;;3.85;;
76320;SDS011;65132;52.088;5.402;2023-05-10T15:15:49;9.77;;;4.40;;
76320;SDS011;65132;52.088;5.402;2023-05-10T15:18:15;12.73;;;3.88;;
76320;SDS011;65132;52.088;5.402;2023-05-10T15:20:41;10.85;;;4.47;;
76320;SDS011;65132;52.088;5.402;2023-05-10T15:23:09;10.68;;;4.05;;
76320;SDS011;65132;52.088;5.402;2023-05-10T15:25:35;10.18;;;3.65;;
76320;SDS011;65132;52.088;5.402;2023-05-10T15:28:03;8.48;;;3.83;;
76320;SDS011;65132;52.088;5.402;2023-05-10T15:30:30;7.85;;;3.72;;
76320;SDS011;65132;52.088;5.402;2023-05-10T15:33:03;7.85;;;3.67;;
76320;SDS011;65132;52.088;5.402;2023-05-10T15:35:30;10.30;;;3.67;;
76320;SDS011;65132;52.088;5.402;2023-05-10T15:37:58;9.18;;;3.80;;
76320;SDS011;65132;52.088;5.402;2023-05-10T15:40:25;9.55;;;4.10;;
76320;SDS011;65132;52.088;5.402;2023-05-10T15:42:52;8.98;;;4.18;;
76320;SDS011;65132;52.088;5.402;2023-05-10T15:45:19;7.30;;;3.70;;
76320;SDS011;65132;52.088;5.402;2023-05-10T15:47:45;7.57;;;3.60;;
76320;SDS011;65132;52.088;5.402;2023-05-10T15:50:14;8.10;;;3.40;;
76320;SDS011;65132;52.088;5.402;2023-05-10T15:52:40;9.07;;;3.72;;
76320;SDS011;65132;52.088;5.402;2023-05-10T15:55:07;9.05;;;3.70;;
76320;SDS011;65132;52.088;5.402;2023-05-10T15:57:33;9.65;;;3.45;;
76320;SDS011;65132;52.088;5.402;2023-05-10T16:00:04;8.18;;;3.47;;
76320;SDS011;65132;52.088;5.402;2023-05-10T16:02:31;7.10;;;3.30;;
76320;SDS011;65132;52.088;5.402;2023-05-10T16:05:02;6.82;;;3.42;;